sensor_id;sensor_type;location;lat;lon;timestamp;temperature;humidity
47022;DHT22;32779;52.264;6.154;2023-06-26T00:00:52;24.10;99.20
47022;DHT22;32779;52.264;6.154;2023-06-26T00:03:18;24.10;99.20
47022;DHT22;32779;52.264;6.154;2023-06-26T00:05:43;24.00;99.50
47022;DHT22;32779;52.264;6.154;2023-06-26T00:08:09;24.00;99.70
47022;DHT22;32779;52.264;6.154;2023-06-26T00:10:35;23.90;99.90
47022;DHT22;32779;52.264;6.154;2023-06-26T00:13:00;23.90;99.90
47022;DHT22;32779;52.264;6.154;2023-06-26T00:15:27;23.80;99.90
47022;DHT22;32779;52.264;6.154;2023-06-26T00:17:57;23.70;99.90
47022;DHT22;32779;52.264;6.154;2023-06-26T00:20:22;23.70;99.90
47022;DHT22;32779;52.264;6.154;2023-06-26T00:22:48;23.70;99.90
47022;DHT22;32779;52.264;6.154;2023-06-26T00:25:15;23.60;99.90
47022;DHT22;32779;52.264;6.154;2023-06-26T00:27:41;23.60;99.90
47022;DHT22;32779;52.264;6.154;2023-06-26T00:30:08;23.50;99.90
47022;DHT22;32779;52.264;6.154;2023-06-26T00:32:34;23.50;99.90
47022;DHT22;32779;52.264;6.154;2023-06-26T00:34:59;23.50;99.90
47022;DHT22;32779;52.264;6.154;2023-06-26T00:37:25;23.40;99.90
47022;DHT22;32779;52.264;6.154;2023-06-26T00:39:50;23.40;99.90
47022;DHT22;32779;52.264;6.154;2023-06-26T00:42:16;23.40;99.90
47022;DHT22;32779;52.264;6.154;2023-06-26T00:44:42;23.40;99.90
47022;DHT22;32779;52.264;6.154;2023-06-26T00:47:08;23.40;99.90
47022;DHT22;32779;52.264;6.154;2023-06-26T00:49:34;23.40;99.90
47022;DHT22;32779;52.264;6.154;2023-06-26T00:52:02;23.30;99.90
47022;DHT22;32779;52.264;6.154;2023-06-26T00:54:29;23.30;99.90
47022;DHT22;32779;52.264;6.154;2023-06-26T00:56:54;23.30;99.90
47022;DHT22;32779;52.264;6.154;2023-06-26T00:59:20;23.30;99.90
47022;DHT22;32779;52.264;6.154;2023-06-26T01:01:45;23.30;99.90
47022;DHT22;32779;52.264;6.154;2023-06-26T01:04:11;23.30;99.90
47022;DHT22;32779;52.264;6.154;2023-06-26T01:06:44;23.30;99.90
47022;DHT22;32779;52.264;6.154;2023-06-26T01:09:20;23.20;99.90
47022;DHT22;32779;52.264;6.154;2023-06-26T01:11:46;23.20;99.90
47022;DHT22;32779;52.264;6.154;2023-06-26T01:14:12;23.20;99.90
47022;DHT22;32779;52.264;6.154;2023-06-26T01:16:39;23.10;99.90
47022;DHT22;32779;52.264;6.154;2023-06-26T01:19:11;23.00;99.90
47022;DHT22;32779;52.264;6.154;2023-06-26T01:21:42;23.10;99.90
47022;DHT22;32779;52.264;6.154;2023-06-26T01:24:15;23.00;99.90
47022;DHT22;32779;52.264;6.154;2023-06-26T01:26:47;23.00;99.90
47022;DHT22;32779;52.264;6.154;2023-06-26T01:29:15;23.00;99.90
47022;DHT22;32779;52.264;6.154;2023-06-26T01:31:42;22.90;99.90
47022;DHT22;32779;52.264;6.154;2023-06-26T01:34:09;22.80;99.90
47022;DHT22;32779;52.264;6.154;2023-06-26T01:36:35;22.80;99.90
47022;DHT22;32779;52.264;6.154;2023-06-26T01:39:02;22.80;99.90
47022;DHT22;32779;52.264;6.154;2023-06-26T01:41:28;22.70;99.90
47022;DHT22;32779;52.264;6.154;2023-06-26T01:49:40;22.50;99.90
47022;DHT22;32779;52.264;6.154;2023-06-26T01:57:42;22.40;99.90
47022;DHT22;32779;52.264;6.154;2023-06-26T02:00:09;22.40;99.90
47022;DHT22;32779;52.264;6.154;2023-06-26T02:02:36;22.40;99.90
47022;DHT22;32779;52.264;6.154;2023-06-26T02:05:02;22.30;99.90
47022;DHT22;32779;52.264;6.154;2023-06-26T02:07:28;22.30;99.90
47022;DHT22;32779;52.264;6.154;2023-06-26T02:09:54;22.20;99.90
47022;DHT22;32779;52.264;6.154;2023-06-26T02:12:20;22.20;99.90
47022;DHT22;32779;52.264;6.154;2023-06-26T02:14:45;22.20;99.90
47022;DHT22;32779;52.264;6.154;2023-06-26T02:17:11;22.10;99.90
47022;DHT22;32779;52.264;6.154;2023-06-26T02:19:37;22.10;99.90
47022;DHT22;32779;52.264;6.154;2023-06-26T02:22:10;22.10;99.90
47022;DHT22;32779;52.264;6.154;2023-06-26T02:24:36;22.00;99.90
47022;DHT22;32779;52.264;6.154;2023-06-26T02:27:01;22.00;99.90
47022;DHT22;32779;52.264;6.154;2023-06-26T02:29:27;22.10;99.90
47022;DHT22;32779;52.264;6.154;2023-06-26T02:31:53;22.00;99.90
47022;DHT22;32779;52.264;6.154;2023-06-26T02:34:19;22.00;99.90
47022;DHT22;32779;52.264;6.154;2023-06-26T02:36:44;21.90;99.90
47022;DHT22;32779;52.264;6.154;2023-06-26T02:39:10;21.90;99.90
47022;DHT22;32779;52.264;6.154;2023-06-26T02:41:36;21.80;99.90
47022;DHT22;32779;52.264;6.154;2023-06-26T02:44:02;21.80;99.90
47022;DHT22;32779;52.264;6.154;2023-06-26T02:46:28;21.80;99.90
47022;DHT22;32779;52.264;6.154;2023-06-26T02:48:53;21.70;99.90
47022;DHT22;32779;52.264;6.154;2023-06-26T02:51:19;21.70;99.90
47022;DHT22;32779;52.264;6.154;2023-06-26T02:53:44;21.80;99.90
47022;DHT22;32779;52.264;6.154;2023-06-26T02:56:10;21.70;99.90
47022;DHT22;32779;52.264;6.154;2023-06-26T02:58:38;21.70;99.90
47022;DHT22;32779;52.264;6.154;2023-06-26T03:01:03;21.70;99.90
47022;DHT22;32779;52.264;6.154;2023-06-26T03:03:29;21.70;99.90
47022;DHT22;32779;52.264;6.154;2023-06-26T03:05:55;21.70;99.90
47022;DHT22;32779;52.264;6.154;2023-06-26T03:08:20;21.70;99.90
47022;DHT22;32779;52.264;6.154;2023-06-26T03:10:46;21.70;99.90
47022;DHT22;32779;52.264;6.154;2023-06-26T03:13:12;21.70;99.90
47022;DHT22;32779;52.264;6.154;2023-06-26T03:15:37;21.70;99.90
47022;DHT22;32779;52.264;6.154;2023-06-26T03:18:03;21.70;99.90
47022;DHT22;32779;52.264;6.154;2023-06-26T03:20:28;21.70;99.90
47022;DHT22;32779;52.264;6.154;2023-06-26T03:22:54;21.70;99.90
47022;DHT22;32779;52.264;6.154;2023-06-26T03:25:20;21.70;99.90
47022;DHT22;32779;52.264;6.154;2023-06-26T03:27:45;21.60;99.90
47022;DHT22;32779;52.264;6.154;2023-06-26T03:30:11;21.60;99.90
47022;DHT22;32779;52.264;6.154;2023-06-26T03:32:37;21.60;99.90
47022;DHT22;32779;52.264;6.154;2023-06-26T03:35:02;21.60;99.90
47022;DHT22;32779;52.264;6.154;2023-06-26T03:37:28;21.60;99.90
47022;DHT22;32779;52.264;6.154;2023-06-26T03:39:54;21.60;99.90
47022;DHT22;32779;52.264;6.154;2023-06-26T03:42:20;21.50;99.90
47022;DHT22;32779;52.264;6.154;2023-06-26T03:44:45;21.50;99.90
47022;DHT22;32779;52.264;6.154;2023-06-26T03:47:11;21.50;99.90
47022;DHT22;32779;52.264;6.154;2023-06-26T03:49:36;21.50;99.90
47022;DHT22;32779;52.264;6.154;2023-06-26T03:52:02;21.50;99.90
47022;DHT22;32779;52.264;6.154;2023-06-26T03:54:28;21.50;99.90
47022;DHT22;32779;52.264;6.154;2023-06-26T03:56:53;21.40;99.90
47022;DHT22;32779;52.264;6.154;2023-06-26T03:59:19;21.50;99.90
47022;DHT22;32779;52.264;6.154;2023-06-26T04:01:44;21.50;99.90
47022;DHT22;32779;52.264;6.154;2023-06-26T04:04:13;21.50;99.90
47022;DHT22;32779;52.264;6.154;2023-06-26T04:06:38;21.50;99.90
47022;DHT22;32779;52.264;6.154;2023-06-26T04:09:04;21.50;99.90
47022;DHT22;32779;52.264;6.154;2023-06-26T04:11:30;21.50;99.90
47022;DHT22;32779;52.264;6.154;2023-06-26T04:13:56;21.40;99.90
47022;DHT22;32779;52.264;6.154;2023-06-26T04:16:22;21.40;99.90
47022;DHT22;32779;52.264;6.154;2023-06-26T04:18:51;21.40;99.90
47022;DHT22;32779;52.264;6.154;2023-06-26T04:21:17;21.40;99.90
47022;DHT22;32779;52.264;6.154;2023-06-26T04:23:43;21.40;99.90
47022;DHT22;32779;52.264;6.154;2023-06-26T04:26:09;21.40;99.90
47022;DHT22;32779;52.264;6.154;2023-06-26T04:28:38;21.40;99.90
47022;DHT22;32779;52.264;6.154;2023-06-26T04:31:04;21.50;99.90
47022;DHT22;32779;52.264;6.154;2023-06-26T04:33:30;21.40;99.90
47022;DHT22;32779;52.264;6.154;2023-06-26T04:35:55;21.50;99.90
47022;DHT22;32779;52.264;6.154;2023-06-26T04:38:21;21.40;99.90
47022;DHT22;32779;52.264;6.154;2023-06-26T04:40:48;21.50;99.90
47022;DHT22;32779;52.264;6.154;2023-06-26T04:43:13;21.40;99.90
47022;DHT22;32779;52.264;6.154;2023-06-26T04:45:39;21.50;99.90
47022;DHT22;32779;52.264;6.154;2023-06-26T04:48:05;21.50;99.90
47022;DHT22;32779;52.264;6.154;2023-06-26T04:50:31;21.40;99.90
47022;DHT22;32779;52.264;6.154;2023-06-26T04:52:57;21.50;99.90
47022;DHT22;32779;52.264;6.154;2023-06-26T04:55:24;21.60;99.90
47022;DHT22;32779;52.264;6.154;2023-06-26T04:57:50;21.60;99.90
47022;DHT22;32779;52.264;6.154;2023-06-26T05:00:16;21.60;99.90
47022;DHT22;32779;52.264;6.154;2023-06-26T05:02:41;21.60;99.90
47022;DHT22;32779;52.264;6.154;2023-06-26T05:05:07;21.60;99.90
47022;DHT22;32779;52.264;6.154;2023-06-26T05:07:33;21.60;99.90
47022;DHT22;32779;52.264;6.154;2023-06-26T05:09:59;21.50;99.90
47022;DHT22;32779;52.264;6.154;2023-06-26T05:12:24;21.50;99.90
47022;DHT22;32779;52.264;6.154;2023-06-26T05:14:50;21.40;99.90
47022;DHT22;32779;52.264;6.154;2023-06-26T05:17:16;21.40;99.90
47022;DHT22;32779;52.264;6.154;2023-06-26T05:19:42;21.40;99.90
47022;DHT22;32779;52.264;6.154;2023-06-26T05:22:08;21.30;99.90
47022;DHT22;32779;52.264;6.154;2023-06-26T05:24:35;21.30;99.90
47022;DHT22;32779;52.264;6.154;2023-06-26T05:27:01;21.30;99.90
47022;DHT22;32779;52.264;6.154;2023-06-26T05:29:28;21.30;99.90
47022;DHT22;32779;52.264;6.154;2023-06-26T05:31:56;21.30;99.90
47022;DHT22;32779;52.264;6.154;2023-06-26T05:34:23;21.30;99.90
47022;DHT22;32779;52.264;6.154;2023-06-26T05:36:51;21.20;99.90
47022;DHT22;32779;52.264;6.154;2023-06-26T05:39:17;21.20;99.90
47022;DHT22;32779;52.264;6.154;2023-06-26T05:41:44;21.20;99.90
47022;DHT22;32779;52.264;6.154;2023-06-26T05:44:10;21.20;99.90
47022;DHT22;32779;52.264;6.154;2023-06-26T05:46:36;21.20;99.90
47022;DHT22;32779;52.264;6.154;2023-06-26T05:49:02;21.20;99.90
47022;DHT22;32779;52.264;6.154;2023-06-26T05:51:28;21.20;99.90
47022;DHT22;32779;52.264;6.154;2023-06-26T05:53:54;21.20;99.90
47022;DHT22;32779;52.264;6.154;2023-06-26T05:56:20;21.30;99.90
47022;DHT22;32779;52.264;6.154;2023-06-26T05:58:46;21.40;99.90
47022;DHT22;32779;52.264;6.154;2023-06-26T06:01:12;21.40;99.90
47022;DHT22;32779;52.264;6.154;2023-06-26T06:03:39;21.40;99.90
47022;DHT22;32779;52.264;6.154;2023-06-26T06:06:05;21.40;99.90
47022;DHT22;32779;52.264;6.154;2023-06-26T06:08:31;21.40;99.90
47022;DHT22;32779;52.264;6.154;2023-06-26T06:10:56;21.50;99.90
47022;DHT22;32779;52.264;6.154;2023-06-26T06:13:22;21.50;99.90
47022;DHT22;32779;52.264;6.154;2023-06-26T06:15:47;21.40;99.90
47022;DHT22;32779;52.264;6.154;2023-06-26T06:18:13;21.50;99.90
47022;DHT22;32779;52.264;6.154;2023-06-26T06:20:39;21.60;99.90
47022;DHT22;32779;52.264;6.154;2023-06-26T06:23:04;21.60;99.90
47022;DHT22;32779;52.264;6.154;2023-06-26T06:25:30;21.70;99.90
47022;DHT22;32779;52.264;6.154;2023-06-26T06:27:55;21.70;99.90
47022;DHT22;32779;52.264;6.154;2023-06-26T06:30:21;21.80;99.90
47022;DHT22;32779;52.264;6.154;2023-06-26T06:32:47;21.70;99.90
47022;DHT22;32779;52.264;6.154;2023-06-26T06:35:17;21.90;99.90
47022;DHT22;32779;52.264;6.154;2023-06-26T06:37:42;21.90;99.90
47022;DHT22;32779;52.264;6.154;2023-06-26T06:40:11;22.10;99.90
47022;DHT22;32779;52.264;6.154;2023-06-26T06:42:37;22.10;99.90
47022;DHT22;32779;52.264;6.154;2023-06-26T06:45:03;22.20;99.90
47022;DHT22;32779;52.264;6.154;2023-06-26T06:47:30;22.30;99.90
47022;DHT22;32779;52.264;6.154;2023-06-26T06:49:56;22.40;99.90
47022;DHT22;32779;52.264;6.154;2023-06-26T06:52:21;22.60;99.90
47022;DHT22;32779;52.264;6.154;2023-06-26T06:54:57;22.80;99.90
47022;DHT22;32779;52.264;6.154;2023-06-26T06:57:30;23.10;99.90
47022;DHT22;32779;52.264;6.154;2023-06-26T06:59:56;23.20;99.90
47022;DHT22;32779;52.264;6.154;2023-06-26T07:02:21;23.30;99.90
47022;DHT22;32779;52.264;6.154;2023-06-26T07:04:47;23.30;99.90
47022;DHT22;32779;52.264;6.154;2023-06-26T07:07:13;23.50;99.90
47022;DHT22;32779;52.264;6.154;2023-06-26T07:09:41;23.70;99.90
47022;DHT22;32779;52.264;6.154;2023-06-26T07:12:10;23.80;99.90
47022;DHT22;32779;52.264;6.154;2023-06-26T07:14:35;24.00;99.60
47022;DHT22;32779;52.264;6.154;2023-06-26T07:17:01;24.20;99.20
47022;DHT22;32779;52.264;6.154;2023-06-26T07:19:26;24.30;99.20
47022;DHT22;32779;52.264;6.154;2023-06-26T07:21:52;24.30;98.50
47022;DHT22;32779;52.264;6.154;2023-06-26T07:24:18;24.30;99.10
47022;DHT22;32779;52.264;6.154;2023-06-26T07:26:43;24.30;98.90
47022;DHT22;32779;52.264;6.154;2023-06-26T07:29:09;24.40;99.20
47022;DHT22;32779;52.264;6.154;2023-06-26T07:31:37;24.60;99.00
47022;DHT22;32779;52.264;6.154;2023-06-26T07:34:03;24.70;98.30
47022;DHT22;32779;52.264;6.154;2023-06-26T07:36:29;24.60;98.90
47022;DHT22;32779;52.264;6.154;2023-06-26T07:38:54;24.70;98.20
47022;DHT22;32779;52.264;6.154;2023-06-26T07:41:20;24.70;97.30
47022;DHT22;32779;52.264;6.154;2023-06-26T07:43:45;24.90;97.60
47022;DHT22;32779;52.264;6.154;2023-06-26T07:46:11;25.00;97.80
47022;DHT22;32779;52.264;6.154;2023-06-26T07:48:36;24.80;97.00
47022;DHT22;32779;52.264;6.154;2023-06-26T07:51:02;24.60;97.60
47022;DHT22;32779;52.264;6.154;2023-06-26T07:53:28;24.50;98.00
47022;DHT22;32779;52.264;6.154;2023-06-26T07:55:53;24.50;98.30
47022;DHT22;32779;52.264;6.154;2023-06-26T07:58:19;24.70;98.30
47022;DHT22;32779;52.264;6.154;2023-06-26T08:00:45;24.90;98.10
47022;DHT22;32779;52.264;6.154;2023-06-26T08:03:10;24.90;97.20
47022;DHT22;32779;52.264;6.154;2023-06-26T08:05:36;24.70;97.20
47022;DHT22;32779;52.264;6.154;2023-06-26T08:08:01;24.70;98.30
47022;DHT22;32779;52.264;6.154;2023-06-26T08:10:28;24.80;98.30
47022;DHT22;32779;52.264;6.154;2023-06-26T08:12:54;24.80;96.90
47022;DHT22;32779;52.264;6.154;2023-06-26T08:15:20;24.70;97.80
47022;DHT22;32779;52.264;6.154;2023-06-26T08:17:46;24.90;96.50
47022;DHT22;32779;52.264;6.154;2023-06-26T08:20:12;25.20;96.70
47022;DHT22;32779;52.264;6.154;2023-06-26T08:22:38;25.50;95.80
47022;DHT22;32779;52.264;6.154;2023-06-26T08:25:04;25.60;95.70
47022;DHT22;32779;52.264;6.154;2023-06-26T08:27:31;25.70;95.50
47022;DHT22;32779;52.264;6.154;2023-06-26T08:29:57;25.50;96.50
47022;DHT22;32779;52.264;6.154;2023-06-26T08:32:22;25.40;96.30
47022;DHT22;32779;52.264;6.154;2023-06-26T08:34:48;25.40;95.90
47022;DHT22;32779;52.264;6.154;2023-06-26T08:37:14;25.60;96.40
47022;DHT22;32779;52.264;6.154;2023-06-26T08:39:39;25.80;96.60
47022;DHT22;32779;52.264;6.154;2023-06-26T08:42:08;25.80;95.70
47022;DHT22;32779;52.264;6.154;2023-06-26T08:44:33;25.70;95.60
47022;DHT22;32779;52.264;6.154;2023-06-26T08:47:00;25.50;96.10
47022;DHT22;32779;52.264;6.154;2023-06-26T08:49:34;25.20;96.10
47022;DHT22;32779;52.264;6.154;2023-06-26T08:52:10;24.90;96.80
47022;DHT22;32779;52.264;6.154;2023-06-26T08:54:44;24.70;97.60
47022;DHT22;32779;52.264;6.154;2023-06-26T08:57:10;24.90;97.90
47022;DHT22;32779;52.264;6.154;2023-06-26T08:59:36;25.10;97.20
47022;DHT22;32779;52.264;6.154;2023-06-26T09:02:02;25.40;97.40
47022;DHT22;32779;52.264;6.154;2023-06-26T09:04:28;25.80;97.20
47022;DHT22;32779;52.264;6.154;2023-06-26T09:06:54;26.10;96.50
47022;DHT22;32779;52.264;6.154;2023-06-26T09:09:19;26.00;95.10
47022;DHT22;32779;52.264;6.154;2023-06-26T09:11:46;25.60;94.60
47022;DHT22;32779;52.264;6.154;2023-06-26T09:14:13;25.50;95.10
47022;DHT22;32779;52.264;6.154;2023-06-26T09:16:42;25.60;95.30
47022;DHT22;32779;52.264;6.154;2023-06-26T09:19:13;25.50;94.30
47022;DHT22;32779;52.264;6.154;2023-06-26T09:21:40;25.60;94.80
47022;DHT22;32779;52.264;6.154;2023-06-26T09:24:07;25.80;95.20
47022;DHT22;32779;52.264;6.154;2023-06-26T09:26:36;26.10;95.20
47022;DHT22;32779;52.264;6.154;2023-06-26T09:29:05;26.40;93.60
47022;DHT22;32779;52.264;6.154;2023-06-26T09:31:41;26.30;92.90
47022;DHT22;32779;52.264;6.154;2023-06-26T09:34:08;26.40;93.60
47022;DHT22;32779;52.264;6.154;2023-06-26T09:36:34;26.30;92.00
47022;DHT22;32779;52.264;6.154;2023-06-26T09:39:07;26.40;92.30
47022;DHT22;32779;52.264;6.154;2023-06-26T09:41:37;26.30;92.00
47022;DHT22;32779;52.264;6.154;2023-06-26T09:44:05;26.20;92.00
47022;DHT22;32779;52.264;6.154;2023-06-26T09:46:33;25.90;91.90
47022;DHT22;32779;52.264;6.154;2023-06-26T09:51:24;25.20;93.00
47022;DHT22;32779;52.264;6.154;2023-06-26T09:53:50;25.30;93.40
47022;DHT22;32779;52.264;6.154;2023-06-26T09:56:17;25.50;90.80
47022;DHT22;32779;52.264;6.154;2023-06-26T09:58:43;25.60;90.00
47022;DHT22;32779;52.264;6.154;2023-06-26T10:01:09;25.70;90.90
47022;DHT22;32779;52.264;6.154;2023-06-26T10:03:35;25.70;91.10
47022;DHT22;32779;52.264;6.154;2023-06-26T10:06:02;25.70;90.30
47022;DHT22;32779;52.264;6.154;2023-06-26T10:08:28;25.90;91.50
47022;DHT22;32779;52.264;6.154;2023-06-26T10:10:55;25.90;89.00
47022;DHT22;32779;52.264;6.154;2023-06-26T10:13:27;25.80;89.30
47022;DHT22;32779;52.264;6.154;2023-06-26T10:15:53;25.80;90.30
47022;DHT22;32779;52.264;6.154;2023-06-26T10:18:21;25.90;90.50
47022;DHT22;32779;52.264;6.154;2023-06-26T10:20:48;26.00;86.00
47022;DHT22;32779;52.264;6.154;2023-06-26T10:23:18;25.80;82.50
47022;DHT22;32779;52.264;6.154;2023-06-26T10:25:46;25.80;87.80
47022;DHT22;32779;52.264;6.154;2023-06-26T10:28:15;25.90;86.00
47022;DHT22;32779;52.264;6.154;2023-06-26T10:30:42;25.90;88.80
47022;DHT22;32779;52.264;6.154;2023-06-26T10:33:09;26.00;90.00
47022;DHT22;32779;52.264;6.154;2023-06-26T10:35:43;26.00;88.10
47022;DHT22;32779;52.264;6.154;2023-06-26T10:38:10;25.70;88.80
47022;DHT22;32779;52.264;6.154;2023-06-26T10:40:45;25.60;89.30
47022;DHT22;32779;52.264;6.154;2023-06-26T10:43:12;25.50;87.60
47022;DHT22;32779;52.264;6.154;2023-06-26T10:45:45;25.40;85.80
47022;DHT22;32779;52.264;6.154;2023-06-26T10:48:14;25.40;84.60
47022;DHT22;32779;52.264;6.154;2023-06-26T10:50:40;25.50;85.10
47022;DHT22;32779;52.264;6.154;2023-06-26T10:56:04;25.40;86.60
47022;DHT22;32779;52.264;6.154;2023-06-26T11:01:19;25.50;89.80
47022;DHT22;32779;52.264;6.154;2023-06-26T11:06:21;25.40;88.50
47022;DHT22;32779;52.264;6.154;2023-06-26T11:09:09;25.30;88.50
47022;DHT22;32779;52.264;6.154;2023-06-26T11:14:18;25.00;89.20
47022;DHT22;32779;52.264;6.154;2023-06-26T11:16:44;25.00;90.50
47022;DHT22;32779;52.264;6.154;2023-06-26T11:19:11;25.00;90.80
47022;DHT22;32779;52.264;6.154;2023-06-26T11:21:40;25.00;90.70
47022;DHT22;32779;52.264;6.154;2023-06-26T11:24:10;25.20;91.20
47022;DHT22;32779;52.264;6.154;2023-06-26T11:29:05;25.20;91.20
47022;DHT22;32779;52.264;6.154;2023-06-26T11:31:36;25.30;91.00
47022;DHT22;32779;52.264;6.154;2023-06-26T11:34:05;25.30;90.30
47022;DHT22;32779;52.264;6.154;2023-06-26T11:36:31;25.30;90.80
47022;DHT22;32779;52.264;6.154;2023-06-26T11:38:59;25.30;89.80
47022;DHT22;32779;52.264;6.154;2023-06-26T11:41:27;25.30;90.40
47022;DHT22;32779;52.264;6.154;2023-06-26T11:43:54;25.30;91.40
47022;DHT22;32779;52.264;6.154;2023-06-26T11:46:21;25.40;90.50
47022;DHT22;32779;52.264;6.154;2023-06-26T11:48:48;25.50;90.20
47022;DHT22;32779;52.264;6.154;2023-06-26T11:51:14;25.40;90.00
47022;DHT22;32779;52.264;6.154;2023-06-26T11:53:44;25.20;88.10
47022;DHT22;32779;52.264;6.154;2023-06-26T11:56:16;25.10;88.50
47022;DHT22;32779;52.264;6.154;2023-06-26T11:59:02;24.80;86.90
47022;DHT22;32779;52.264;6.154;2023-06-26T12:01:32;24.60;87.60
47022;DHT22;32779;52.264;6.154;2023-06-26T12:04:00;24.30;89.70
47022;DHT22;32779;52.264;6.154;2023-06-26T12:06:27;24.30;88.60
47022;DHT22;32779;52.264;6.154;2023-06-26T12:08:54;24.30;87.40
47022;DHT22;32779;52.264;6.154;2023-06-26T12:11:21;24.50;87.10
47022;DHT22;32779;52.264;6.154;2023-06-26T12:13:47;24.50;87.10
47022;DHT22;32779;52.264;6.154;2023-06-26T12:16:14;24.60;87.20
47022;DHT22;32779;52.264;6.154;2023-06-26T12:18:40;24.70;87.40
47022;DHT22;32779;52.264;6.154;2023-06-26T12:21:06;24.70;84.20
47022;DHT22;32779;52.264;6.154;2023-06-26T12:23:41;24.70;84.30
47022;DHT22;32779;52.264;6.154;2023-06-26T12:26:20;24.70;81.70
47022;DHT22;32779;52.264;6.154;2023-06-26T12:28:46;24.60;83.00
47022;DHT22;32779;52.264;6.154;2023-06-26T12:31:15;24.60;86.00
47022;DHT22;32779;52.264;6.154;2023-06-26T12:33:45;24.70;85.30
47022;DHT22;32779;52.264;6.154;2023-06-26T12:36:14;24.80;86.60
47022;DHT22;32779;52.264;6.154;2023-06-26T12:38:45;24.90;85.50
47022;DHT22;32779;52.264;6.154;2023-06-26T12:41:15;25.00;86.90
47022;DHT22;32779;52.264;6.154;2023-06-26T12:43:41;25.20;88.00
47022;DHT22;32779;52.264;6.154;2023-06-26T12:46:07;25.20;87.20
47022;DHT22;32779;52.264;6.154;2023-06-26T12:48:40;25.30;88.30
47022;DHT22;32779;52.264;6.154;2023-06-26T12:51:16;25.50;88.50
47022;DHT22;32779;52.264;6.154;2023-06-26T12:53:52;25.50;87.60
47022;DHT22;32779;52.264;6.154;2023-06-26T12:56:17;25.30;87.70
47022;DHT22;32779;52.264;6.154;2023-06-26T12:58:43;25.20;86.90
47022;DHT22;32779;52.264;6.154;2023-06-26T13:01:09;25.10;87.60
47022;DHT22;32779;52.264;6.154;2023-06-26T13:03:40;24.90;86.70
47022;DHT22;32779;52.264;6.154;2023-06-26T13:06:06;24.90;85.90
47022;DHT22;32779;52.264;6.154;2023-06-26T13:08:32;24.90;88.30
47022;DHT22;32779;52.264;6.154;2023-06-26T13:10:58;24.90;85.40
47022;DHT22;32779;52.264;6.154;2023-06-26T13:13:24;24.90;87.00
47022;DHT22;32779;52.264;6.154;2023-06-26T13:15:49;25.00;88.60
47022;DHT22;32779;52.264;6.154;2023-06-26T13:18:15;24.90;85.80
47022;DHT22;32779;52.264;6.154;2023-06-26T13:20:41;24.90;86.10
47022;DHT22;32779;52.264;6.154;2023-06-26T13:23:06;25.00;86.20
47022;DHT22;32779;52.264;6.154;2023-06-26T13:25:33;25.10;86.50
47022;DHT22;32779;52.264;6.154;2023-06-26T13:27:58;25.20;84.40
47022;DHT22;32779;52.264;6.154;2023-06-26T13:30:24;25.20;87.50
47022;DHT22;32779;52.264;6.154;2023-06-26T13:32:50;25.20;85.20
47022;DHT22;32779;52.264;6.154;2023-06-26T13:35:15;25.20;85.90
47022;DHT22;32779;52.264;6.154;2023-06-26T13:37:42;25.00;87.90
47022;DHT22;32779;52.264;6.154;2023-06-26T13:40:09;25.10;87.10
47022;DHT22;32779;52.264;6.154;2023-06-26T13:42:35;24.90;85.60
47022;DHT22;32779;52.264;6.154;2023-06-26T13:45:05;24.90;87.60
47022;DHT22;32779;52.264;6.154;2023-06-26T13:47:31;24.90;85.50
47022;DHT22;32779;52.264;6.154;2023-06-26T13:49:56;24.70;86.00
47022;DHT22;32779;52.264;6.154;2023-06-26T13:52:23;24.70;86.50
47022;DHT22;32779;52.264;6.154;2023-06-26T13:54:48;24.70;86.60
47022;DHT22;32779;52.264;6.154;2023-06-26T13:57:14;24.70;85.90
47022;DHT22;32779;52.264;6.154;2023-06-26T13:59:40;24.70;87.10
47022;DHT22;32779;52.264;6.154;2023-06-26T14:02:07;24.70;87.30
47022;DHT22;32779;52.264;6.154;2023-06-26T14:04:33;24.70;87.30
47022;DHT22;32779;52.264;6.154;2023-06-26T14:06:58;24.70;87.90
47022;DHT22;32779;52.264;6.154;2023-06-26T14:09:24;24.70;88.00
47022;DHT22;32779;52.264;6.154;2023-06-26T14:11:50;24.60;87.90
47022;DHT22;32779;52.264;6.154;2023-06-26T14:14:15;24.70;88.10
47022;DHT22;32779;52.264;6.154;2023-06-26T14:16:41;24.70;86.60
47022;DHT22;32779;52.264;6.154;2023-06-26T14:19:07;24.70;86.50
47022;DHT22;32779;52.264;6.154;2023-06-26T14:21:32;24.50;87.70
47022;DHT22;32779;52.264;6.154;2023-06-26T14:23:59;24.50;86.50
47022;DHT22;32779;52.264;6.154;2023-06-26T14:26:24;24.30;86.30
47022;DHT22;32779;52.264;6.154;2023-06-26T14:28:50;24.20;87.10
47022;DHT22;32779;52.264;6.154;2023-06-26T14:31:16;24.20;89.20
47022;DHT22;32779;52.264;6.154;2023-06-26T14:33:41;24.10;90.40
47022;DHT22;32779;52.264;6.154;2023-06-26T14:36:07;24.10;90.10
47022;DHT22;32779;52.264;6.154;2023-06-26T14:38:33;24.10;90.10
47022;DHT22;32779;52.264;6.154;2023-06-26T14:40:58;23.90;90.30
47022;DHT22;32779;52.264;6.154;2023-06-26T14:43:24;23.90;89.50
47022;DHT22;32779;52.264;6.154;2023-06-26T14:45:50;24.00;89.50
47022;DHT22;32779;52.264;6.154;2023-06-26T14:48:16;24.10;90.40
47022;DHT22;32779;52.264;6.154;2023-06-26T14:50:41;24.10;90.00
47022;DHT22;32779;52.264;6.154;2023-06-26T14:53:07;24.10;87.20
47022;DHT22;32779;52.264;6.154;2023-06-26T14:55:33;24.10;90.30
47022;DHT22;32779;52.264;6.154;2023-06-26T14:57:58;24.10;88.90
47022;DHT22;32779;52.264;6.154;2023-06-26T15:00:24;23.80;88.20
47022;DHT22;32779;52.264;6.154;2023-06-26T15:02:50;23.60;88.40
47022;DHT22;32779;52.264;6.154;2023-06-26T15:05:21;23.50;89.80
47022;DHT22;32779;52.264;6.154;2023-06-26T15:07:47;23.60;89.50
47022;DHT22;32779;52.264;6.154;2023-06-26T15:10:13;23.60;89.10
47022;DHT22;32779;52.264;6.154;2023-06-26T15:12:38;23.50;89.50
47022;DHT22;32779;52.264;6.154;2023-06-26T15:15:05;23.20;88.20
47022;DHT22;32779;52.264;6.154;2023-06-26T15:17:33;23.00;90.10
47022;DHT22;32779;52.264;6.154;2023-06-26T15:19:59;23.00;90.10
47022;DHT22;32779;52.264;6.154;2023-06-26T15:22:26;23.10;90.40
47022;DHT22;32779;52.264;6.154;2023-06-26T15:24:52;23.30;89.50
47022;DHT22;32779;52.264;6.154;2023-06-26T15:27:18;23.50;89.70
47022;DHT22;32779;52.264;6.154;2023-06-26T15:29:44;23.50;88.30
47022;DHT22;32779;52.264;6.154;2023-06-26T15:32:10;23.50;88.70
47022;DHT22;32779;52.264;6.154;2023-06-26T15:34:35;23.50;88.90
47022;DHT22;32779;52.264;6.154;2023-06-26T15:37:01;23.60;88.50
47022;DHT22;32779;52.264;6.154;2023-06-26T15:39:27;23.40;88.70
47022;DHT22;32779;52.264;6.154;2023-06-26T15:41:52;23.40;88.20
47022;DHT22;32779;52.264;6.154;2023-06-26T15:44:18;23.40;90.20
47022;DHT22;32779;52.264;6.154;2023-06-26T15:46:44;23.50;89.50
47022;DHT22;32779;52.264;6.154;2023-06-26T15:49:10;23.60;89.00
47022;DHT22;32779;52.264;6.154;2023-06-26T15:51:35;23.60;88.10
47022;DHT22;32779;52.264;6.154;2023-06-26T15:54:03;23.60;88.20